createdAt,value
2018-05-02T00:00:22.224Z,71.00
2018-05-02T00:02:50.565Z,71.49
2018-05-02T00:05:18.872Z,71.03
2018-05-02T00:07:47.166Z,70.14
2018-05-02T00:10:15.450Z,69.83
2018-05-02T00:12:43.870Z,69.74
2018-05-02T00:15:13.012Z,70.08
2018-05-02T00:17:41.316Z,70.30
2018-05-02T00:20:09.630Z,70.54
2018-05-02T00:22:38.021Z,70.75
2018-05-02T00:25:06.406Z,70.41
2018-05-02T00:27:34.703Z,70.44
2018-05-02T00:30:02.996Z,70.79
2018-05-02T00:32:31.296Z,71.35
2018-05-02T00:35:00.360Z,71.54
2018-05-02T00:37:28.665Z,71.90
2018-05-02T00:39:56.940Z,71.81
2018-05-02T00:42:25.222Z,72.14
2018-05-02T00:44:54.335Z,72.37
2018-05-02T00:47:23.471Z,73.10
2018-05-02T00:49:52.523Z,72.63
2018-05-02T00:52:21.565Z,72.04
2018-05-02T00:54:49.857Z,72.82
2018-05-02T00:57:18.198Z,72.67
2018-05-02T00:59:46.675Z,73.72
2018-05-02T01:02:15.049Z,73.22
2018-05-02T01:04:43.350Z,73.47
2018-05-02T01:07:11.678Z,73.32
2018-05-02T01:09:40.718Z,74.58
2018-05-02T01:12:09.111Z,74.99
2018-05-02T01:14:37.403Z,74.10
2018-05-02T01:17:05.664Z,74.83
2018-05-02T01:19:33.984Z,75.09
2018-05-02T01:22:03.048Z,75.42
2018-05-02T01:24:32.079Z,75.34
2018-05-02T01:27:01.124Z,75.17
2018-05-02T01:29:29.416Z,75.39
2018-05-02T01:31:57.728Z,75.33
2018-05-02T01:34:26.759Z,75.35
2018-05-02T01:36:55.087Z,75.25
2018-05-02T01:39:23.401Z,75.40
2018-05-02T01:41:51.946Z,76.01
2018-05-02T01:44:20.245Z,75.93
2018-05-02T01:46:49.287Z,74.71
2018-05-02T01:49:24.209Z,75.73
2018-05-02T01:51:52.955Z,75.16
2018-05-02T01:54:22.009Z,75.54
2018-05-02T01:56:50.285Z,74.78
2018-05-02T01:59:18.567Z,74.52
2018-05-02T02:01:46.822Z,74.27
2018-05-02T02:04:15.097Z,74.95
2018-05-02T02:06:43.396Z,73.66
2018-05-02T02:09:12.474Z,74.49
2018-05-02T02:11:40.750Z,74.51
2018-05-02T02:14:09.031Z,74.59
2018-05-02T02:16:37.360Z,74.61
2018-05-02T02:19:06.460Z,74.68
2018-05-02T02:21:35.524Z,74.75
2018-05-02T02:24:03.846Z,74.68
2018-05-02T02:26:32.152Z,75.75
2018-05-02T02:29:00.428Z,76.01
2018-05-02T02:31:28.725Z,76.65
2018-05-02T02:33:57.448Z,77.40
2018-05-02T02:36:25.664Z,77.60
2018-05-02T02:38:53.956Z,77.60
2018-05-02T02:41:22.240Z,77.75
2018-05-02T02:43:50.512Z,78.12
2018-05-02T02:46:18.862Z,78.34
2018-05-02T02:48:47.152Z,78.73
2018-05-02T02:51:15.461Z,78.47
2018-05-02T02:53:43.776Z,79.04
2018-05-02T02:56:12.279Z,79.27
2018-05-02T02:58:40.565Z,79.65
2018-05-02T03:01:08.872Z,79.26
2018-05-02T03:03:37.169Z,79.84
2018-05-02T03:06:05.447Z,80.06
2018-05-02T03:08:34.531Z,80.40
2018-05-02T03:11:02.814Z,80.67
2018-05-02T03:13:31.119Z,80.43
2018-05-02T03:15:59.560Z,81.08
2018-05-02T03:18:27.831Z,81.23
2018-05-02T03:20:56.129Z,81.13
2018-05-02T03:23:24.466Z,80.64
2018-05-02T03:25:52.725Z,80.79
2018-05-02T03:28:21.024Z,81.02
2018-05-02T03:30:49.326Z,81.13
2018-05-02T03:33:17.603Z,81.23
2018-05-02T03:35:46.888Z,81.16
2018-05-02T03:38:15.185Z,81.11
2018-05-02T03:40:44.240Z,81.10
2018-05-02T03:43:12.616Z,81.24
2018-05-02T03:45:40.972Z,81.70
2018-05-02T03:48:09.238Z,81.75
2018-05-02T03:50:38.338Z,81.98
2018-05-02T03:53:07.408Z,81.61
2018-05-02T03:55:35.691Z,81.40
2018-05-02T03:58:03.992Z,81.21
2018-05-02T04:04:01.371Z,81.12
2018-05-02T04:06:47.394Z,81.48
2018-05-02T04:09:15.699Z,80.91
2018-05-02T04:11:44.025Z,80.96
2018-05-02T04:14:12.292Z,81.11
2018-05-02T04:16:40.586Z,80.65
2018-05-02T04:19:08.885Z,80.34
2018-05-02T04:21:37.199Z,80.56
2018-05-02T04:24:05.854Z,79.97
2018-05-02T04:26:34.189Z,79.53
2018-05-02T04:29:02.498Z,78.78
2018-05-02T04:31:30.782Z,77.80
2018-05-02T04:33:59.093Z,77.02
2018-05-02T04:36:27.359Z,75.84
2018-05-02T04:38:55.668Z,69.03
2018-05-02T04:41:24.698Z,60.36
2018-05-02T04:43:52.993Z,54.88
2018-05-02T04:46:21.284Z,51.73
2018-05-02T04:48:49.564Z,53.41
2018-05-02T04:51:17.841Z,53.48
2018-05-02T04:53:46.163Z,47.77
2018-05-02T04:56:14.418Z,45.41
2018-05-02T04:58:43.519Z,44.55
2018-05-02T05:01:12.558Z,41.65
2018-05-02T05:03:40.862Z,42.83
2018-05-02T05:06:09.500Z,41.51
2018-05-02T05:08:37.822Z,42.64
2018-05-02T05:11:06.131Z,43.30
2018-05-02T05:13:35.207Z,40.20
2018-05-02T05:16:03.481Z,39.38
2018-05-02T05:18:31.752Z,38.02
2018-05-02T05:21:00.050Z,39.55
2018-05-02T05:23:29.116Z,33.98
2018-05-02T05:25:57.421Z,34.05
2018-05-02T05:28:25.700Z,33.81
2018-05-02T05:30:54.807Z,32.02
2018-05-02T05:33:23.852Z,35.60
2018-05-02T05:35:52.145Z,31.46
2018-05-02T05:38:20.432Z,31.59
2018-05-02T05:40:48.729Z,32.45
2018-05-02T05:43:17.863Z,31.11
2018-05-02T05:45:46.144Z,32.62
2018-05-02T05:48:14.476Z,34.89
2018-05-02T05:50:43.529Z,34.43
2018-05-02T05:53:12.138Z,32.89
2018-05-02T05:55:40.465Z,31.23
2018-05-02T05:58:08.772Z,28.59
2018-05-02T06:00:41.233Z,32.19
2018-05-02T06:03:14.616Z,27.85
2018-05-02T06:05:42.910Z,28.78
2018-05-02T06:08:12.360Z,27.86
2018-05-02T06:10:41.419Z,24.59
2018-05-02T06:13:09.696Z,31.47
2018-05-02T06:15:38.013Z,27.01
2018-05-02T06:18:07.069Z,28.71
2018-05-02T06:20:35.393Z,29.49
2018-05-02T06:23:04.482Z,30.27
2018-05-02T06:25:33.574Z,27.08
2018-05-02T06:28:01.861Z,25.94
2018-05-02T06:30:30.910Z,32.02
2018-05-02T06:32:59.267Z,27.52
2018-05-02T06:35:27.572Z,33.52
2018-05-02T06:37:55.994Z,32.17
2018-05-02T06:40:24.212Z,28.45
2018-05-02T06:42:52.505Z,30.15
2018-05-02T06:45:20.821Z,29.99
2018-05-02T06:47:49.865Z,25.59
2018-05-02T06:50:18.260Z,26.10
2018-05-02T06:52:46.528Z,26.63
2018-05-02T06:55:14.846Z,29.49
2018-05-02T06:57:43.180Z,27.84
2018-05-02T07:00:11.453Z,28.36
2018-05-02T07:02:39.780Z,28.08
2018-05-02T07:05:08.826Z,26.24
2018-05-02T07:07:37.899Z,27.34
2018-05-02T07:10:06.187Z,25.77
2018-05-02T07:12:34.527Z,30.53
2018-05-02T07:15:03.623Z,28.92
2018-05-02T07:17:32.675Z,27.50
2018-05-02T07:20:00.982Z,28.03
2018-05-02T07:22:29.277Z,29.98
2018-05-02T07:24:58.421Z,28.62
2018-05-02T07:27:26.707Z,27.15
2018-05-02T07:29:54.998Z,31.76
2018-05-02T07:32:23.290Z,31.53
2018-05-02T07:34:51.638Z,33.66
2018-05-02T07:37:20.244Z,27.72
2018-05-02T07:39:48.559Z,28.63
2018-05-02T07:42:16.894Z,32.22
2018-05-02T07:44:45.181Z,26.61
2018-05-02T07:47:13.724Z,31.30
2018-05-02T07:49:42.016Z,33.63
2018-05-02T07:52:10.327Z,37.01
2018-05-02T07:54:38.681Z,38.41
2018-05-02T07:57:07.007Z,38.96
2018-05-02T07:59:36.056Z,39.36
2018-05-02T08:02:04.331Z,39.35
2018-05-02T08:04:32.678Z,38.79
2018-05-02T08:07:00.960Z,39.59
2018-05-02T08:09:29.280Z,40.08
2018-05-02T08:11:57.592Z,39.68
2018-05-02T08:14:25.917Z,39.69
2018-05-02T08:16:54.234Z,38.46
2018-05-02T08:19:23.400Z,39.15
2018-05-02T08:21:51.688Z,37.67
2018-05-02T08:24:20.002Z,38.45
2018-05-02T08:26:48.317Z,38.66
2018-05-02T08:29:16.626Z,37.09
2018-05-02T08:31:44.977Z,37.83
2018-05-02T08:34:15.779Z,37.97
2018-05-02T08:36:44.166Z,39.17
2018-05-02T08:39:12.493Z,39.13
2018-05-02T08:41:40.792Z,39.78
2018-05-02T08:44:09.857Z,39.25
2018-05-02T08:46:38.158Z,38.74
2018-05-02T08:49:08.092Z,39.10
2018-05-02T08:51:36.512Z,39.59
2018-05-02T08:54:05.075Z,39.84
2018-05-02T08:56:34.261Z,40.18
2018-05-02T08:59:02.589Z,39.88
2018-05-02T09:01:30.905Z,40.11
2018-05-02T09:03:59.962Z,39.47
2018-05-02T09:06:28.703Z,39.97
2018-05-02T09:08:57.045Z,40.40
2018-05-02T09:11:25.315Z,40.51
2018-05-02T09:13:53.630Z,41.03
2018-05-02T09:16:21.953Z,40.01
2018-05-02T09:18:50.262Z,39.74
2018-05-02T09:21:19.412Z,39.09
2018-05-02T09:23:47.729Z,37.83
2018-05-02T09:26:16.041Z,37.58
2018-05-02T09:28:44.379Z,37.25
2018-05-02T09:31:12.690Z,38.76
2018-05-02T09:33:40.987Z,37.79
2018-05-02T09:36:09.278Z,37.46
2018-05-02T09:38:37.609Z,36.62
2018-05-02T09:41:06.740Z,36.88
2018-05-02T09:43:35.038Z,37.25
2018-05-02T09:46:03.323Z,37.26
2018-05-02T09:48:32.157Z,36.79
2018-05-02T09:51:00.488Z,36.82
2018-05-02T09:53:28.806Z,35.99
2018-05-02T09:55:57.253Z,37.35
2018-05-02T09:58:25.538Z,36.88
2018-05-02T10:00:53.882Z,37.27
2018-05-02T10:03:22.163Z,37.60
2018-05-02T10:05:50.747Z,36.44
2018-05-02T10:08:19.127Z,34.06
2018-05-02T10:10:47.499Z,34.02
2018-05-02T10:13:15.871Z,34.14
2018-05-02T10:15:44.172Z,32.96
2018-05-02T10:18:12.512Z,33.25
2018-05-02T10:20:40.828Z,33.86
2018-05-02T10:23:09.135Z,33.83
2018-05-02T10:25:41.664Z,33.63
2018-05-02T10:28:09.987Z,31.82
2018-05-02T10:30:38.349Z,31.97
2018-05-02T10:33:06.620Z,33.42
2018-05-02T10:35:35.351Z,33.11
2018-05-02T10:38:04.419Z,33.11
2018-05-02T10:40:32.779Z,34.60
2018-05-02T10:43:01.062Z,33.54
2018-05-02T10:45:29.375Z,34.06
2018-05-02T10:47:58.432Z,32.65
2018-05-02T10:50:26.818Z,33.61
2018-05-02T10:52:55.078Z,31.82
2018-05-02T10:55:23.412Z,32.63
2018-05-02T10:57:51.717Z,31.19
2018-05-02T11:00:20.036Z,31.46
2018-05-02T11:02:48.359Z,30.91
2018-05-02T11:05:16.691Z,32.33
2018-05-02T11:07:45.009Z,34.34
2018-05-02T11:10:13.316Z,34.22
2018-05-02T11:12:42.016Z,35.07
2018-05-02T11:15:10.317Z,34.56
2018-05-02T11:17:39.040Z,34.28
2018-05-02T11:20:07.347Z,34.52
2018-05-02T11:22:35.634Z,35.08
2018-05-02T11:25:03.949Z,34.34
2018-05-02T11:27:33.010Z,34.90
2018-05-02T11:30:01.435Z,34.99
2018-05-02T11:32:30.476Z,34.95
2018-05-02T11:34:58.790Z,34.04
2018-05-02T11:37:27.091Z,35.62
2018-05-02T11:39:56.157Z,34.69
2018-05-02T11:42:32.484Z,34.93
2018-05-02T11:45:00.853Z,35.14
2018-05-02T11:47:29.120Z,34.50
2018-05-02T11:49:57.414Z,34.40
2018-05-02T11:52:25.715Z,34.39
2018-05-02T11:54:54.795Z,34.12
2018-05-02T11:57:23.082Z,34.26
2018-05-02T11:59:51.395Z,33.45
2018-05-02T12:02:20.481Z,33.34
2018-05-02T12:04:48.840Z,33.24
2018-05-02T12:07:17.188Z,33.46
2018-05-02T12:09:45.470Z,33.89
2018-05-02T12:12:13.773Z,33.43
2018-05-02T12:14:42.312Z,32.88
2018-05-02T12:17:10.603Z,32.68
2018-05-02T12:19:38.881Z,32.58
2018-05-02T12:22:07.186Z,32.79
2018-05-02T12:24:35.476Z,33.09
2018-05-02T12:27:03.785Z,32.59
2018-05-02T12:29:32.836Z,32.61
2018-05-02T12:32:01.298Z,32.58
2018-05-02T12:34:29.590Z,32.61
2018-05-02T12:36:58.120Z,32.18
2018-05-02T12:39:27.171Z,31.80
2018-05-02T12:41:55.456Z,32.65
2018-05-02T12:44:23.772Z,33.14
2018-05-02T12:46:52.091Z,33.37
2018-05-02T12:49:20.435Z,33.74
2018-05-02T12:51:49.477Z,33.57
2018-05-02T12:54:17.760Z,33.58
2018-05-02T12:56:46.380Z,33.34
2018-05-02T12:59:15.418Z,33.32
2018-05-02T13:01:43.804Z,32.69
2018-05-02T13:04:12.160Z,33.67
2018-05-02T13:06:44.776Z,33.08
2018-05-02T13:09:13.090Z,33.06
2018-05-02T13:11:46.625Z,31.70
2018-05-02T13:14:14.978Z,32.44
2018-05-02T13:16:44.068Z,30.96
2018-05-02T13:19:13.672Z,30.67
2018-05-02T13:21:41.990Z,31.50
2018-05-02T13:24:10.360Z,32.20
2018-05-02T13:26:38.646Z,32.40
2018-05-02T13:29:06.945Z,32.21
2018-05-02T13:31:35.262Z,32.13
2018-05-02T13:34:08.488Z,33.31
2018-05-02T13:36:37.650Z,33.44
2018-05-02T13:39:06.772Z,33.34
2018-05-02T13:41:35.071Z,33.38
2018-05-02T13:44:03.384Z,33.39
2018-05-02T13:46:31.689Z,33.55
2018-05-02T13:49:00.028Z,32.90
2018-05-02T13:51:29.250Z,32.63
2018-05-02T13:53:58.315Z,32.52
2018-05-02T13:56:26.603Z,33.52
2018-05-02T13:58:55.148Z,33.88
2018-05-02T14:01:23.444Z,33.69
2018-05-02T14:03:52.127Z,33.52
2018-05-02T14:06:24.693Z,33.61
2018-05-02T14:08:52.990Z,34.42
2018-05-02T14:11:21.288Z,34.48
2018-05-02T14:13:49.776Z,34.26
2018-05-02T14:16:18.072Z,34.80
2018-05-02T14:18:47.133Z,34.51
2018-05-02T14:21:15.422Z,34.33
2018-05-02T14:23:43.713Z,34.34
2018-05-02T14:26:12.762Z,33.73
2018-05-02T14:28:41.065Z,34.45
2018-05-02T14:31:09.381Z,34.67
2018-05-02T14:33:37.771Z,34.12
2018-05-02T14:36:06.053Z,33.37
2018-05-02T14:38:34.373Z,34.13
2018-05-02T14:41:02.682Z,34.10
2018-05-02T14:43:31.792Z,34.66
2018-05-02T14:46:00.099Z,34.60
2018-05-02T14:48:28.433Z,34.81
2018-05-02T14:50:57.494Z,34.82
2018-05-02T14:53:25.794Z,33.99
2018-05-02T14:55:54.332Z,34.78
2018-05-02T14:58:22.636Z,34.48
2018-05-02T15:00:50.940Z,34.18
2018-05-02T15:03:20.000Z,33.83
2018-05-02T15:05:48.349Z,33.66
2018-05-02T15:08:16.800Z,33.75
2018-05-02T15:10:45.036Z,34.28
2018-05-02T15:13:13.395Z,34.04
2018-05-02T15:15:41.781Z,33.74
2018-05-02T15:18:10.108Z,33.50
2018-05-02T15:20:39.248Z,33.65
2018-05-02T15:23:07.572Z,34.26
2018-05-02T15:25:35.859Z,34.35
2018-05-02T15:28:04.218Z,34.34
2018-05-02T15:30:32.534Z,34.94
2018-05-02T15:33:00.826Z,34.46
2018-05-02T15:35:29.144Z,34.31
2018-05-02T15:37:57.693Z,34.18
2018-05-02T15:40:26.049Z,34.81
2018-05-02T15:42:54.325Z,34.98
2018-05-02T15:45:22.643Z,34.90
2018-05-02T15:47:50.917Z,35.48
2018-05-02T15:50:19.259Z,35.59
2018-05-02T15:52:47.563Z,35.20
2018-05-02T15:55:15.897Z,35.47
2018-05-02T15:57:44.240Z,35.49
2018-05-02T16:00:12.539Z,35.09
2018-05-02T16:02:41.649Z,34.98
2018-05-02T16:05:10.703Z,35.25
2018-05-02T16:07:39.013Z,35.90
2018-05-02T16:10:08.160Z,36.14
2018-05-02T16:12:36.462Z,35.37
2018-05-02T16:15:04.774Z,35.33
2018-05-02T16:17:33.196Z,35.80
2018-05-02T16:20:01.881Z,36.08
2018-05-02T16:22:30.164Z,36.32
2018-05-02T16:24:58.465Z,36.29
2018-05-02T16:27:26.983Z,36.26
2018-05-02T16:29:55.317Z,36.20
2018-05-02T16:32:23.725Z,36.06
2018-05-02T16:34:52.068Z,36.51
2018-05-02T16:37:20.356Z,36.56
2018-05-02T16:39:48.711Z,36.55
2018-05-02T16:42:17.034Z,36.67
2018-05-02T16:44:46.142Z,36.72
2018-05-02T16:47:15.229Z,36.87
2018-05-02T16:49:43.806Z,37.02
2018-05-02T16:52:12.226Z,37.10
2018-05-02T16:54:40.544Z,37.42
2018-05-02T16:57:08.856Z,37.33
2018-05-02T16:59:38.017Z,37.35
2018-05-02T17:02:06.798Z,37.21
2018-05-02T17:04:35.482Z,37.32
2018-05-02T17:07:04.092Z,37.35
2018-05-02T17:09:32.422Z,37.32
2018-05-02T17:12:00.743Z,37.45
2018-05-02T17:14:29.200Z,37.31
2018-05-02T17:16:57.480Z,37.41
2018-05-02T17:19:25.889Z,37.97
2018-05-02T17:21:54.181Z,38.38
2018-05-02T17:24:23.345Z,37.91
2018-05-02T17:26:56.012Z,38.04
2018-05-02T17:29:24.371Z,38.62
2018-05-02T17:31:52.980Z,38.72
2018-05-02T17:34:21.364Z,38.90
2018-05-02T17:36:49.745Z,39.05
2018-05-02T17:39:22.209Z,39.19
2018-05-02T17:41:55.637Z,39.28
2018-05-02T17:44:25.007Z,39.53
2018-05-02T17:46:53.375Z,39.37
2018-05-02T17:49:21.861Z,39.95
2018-05-02T17:51:51.000Z,39.68
2018-05-02T17:54:20.091Z,39.79
2018-05-02T17:56:48.411Z,40.40
2018-05-02T17:59:16.779Z,40.42
2018-05-02T18:01:45.915Z,40.85
2018-05-02T18:04:14.684Z,40.99
2018-05-02T18:06:43.189Z,40.70
2018-05-02T18:09:11.621Z,40.92
2018-05-02T18:11:40.046Z,40.93
2018-05-02T18:14:08.465Z,41.17
2018-05-02T18:16:37.892Z,41.71
2018-05-02T18:19:07.027Z,41.69
2018-05-02T18:21:35.502Z,41.08
2018-05-02T18:24:04.608Z,41.74
2018-05-02T18:26:33.812Z,41.73
2018-05-02T18:29:08.705Z,42.28
2018-05-02T18:31:37.017Z,42.70
2018-05-02T18:34:05.349Z,42.99
2018-05-02T18:36:34.777Z,42.98
2018-05-02T18:39:03.371Z,43.46
2018-05-02T18:41:35.742Z,43.58
2018-05-02T18:44:04.160Z,43.48
2018-05-02T18:46:32.721Z,43.83
2018-05-02T18:49:01.194Z,43.85
2018-05-02T18:51:29.556Z,43.91
2018-05-02T18:53:58.316Z,44.40
2018-05-02T18:56:27.082Z,44.47
2018-05-02T18:58:56.350Z,44.55
2018-05-02T19:01:24.732Z,44.34
2018-05-02T19:03:53.258Z,44.60
2018-05-02T19:06:21.784Z,44.63
2018-05-02T19:08:50.998Z,44.12
2018-05-02T19:11:19.403Z,44.69
2018-05-02T19:14:07.721Z,44.44
2018-05-02T19:16:36.073Z,44.44
2018-05-02T19:19:10.313Z,44.58
2018-05-02T19:21:38.757Z,44.55
2018-05-02T19:24:07.204Z,44.83
2018-05-02T19:26:37.574Z,45.09
2018-05-02T19:29:06.880Z,44.45
2018-05-02T19:31:40.932Z,44.72
2018-05-02T19:34:09.371Z,45.04
2018-05-02T19:36:37.718Z,44.31
2018-05-02T19:39:07.435Z,44.29
2018-05-02T19:41:46.142Z,44.98
2018-05-02T19:44:15.310Z,43.79
2018-05-02T19:46:43.730Z,44.23
2018-05-02T19:49:12.972Z,44.62
2018-05-02T19:51:47.007Z,44.46
2018-05-02T19:54:15.412Z,44.68
2018-05-02T19:56:44.619Z,45.15
2018-05-02T19:59:13.027Z,45.46
2018-05-02T20:01:47.269Z,45.57
2018-05-02T20:04:16.076Z,45.00
2018-05-02T20:06:44.476Z,45.76
2018-05-02T20:09:18.776Z,45.36
2018-05-02T20:11:52.832Z,45.76
2018-05-02T20:14:21.273Z,45.70
2018-05-02T20:16:49.633Z,46.06
2018-05-02T20:19:18.042Z,45.89
2018-05-02T20:21:46.547Z,46.15
2018-05-02T20:24:15.769Z,46.28
2018-05-02T20:26:44.111Z,46.48
2018-05-02T20:29:12.502Z,46.60
2018-05-02T20:31:41.127Z,46.55
2018-05-02T20:34:09.452Z,46.94
2018-05-02T20:36:37.788Z,46.96
2018-05-02T20:39:06.049Z,47.65
2018-05-02T20:41:34.448Z,47.54
2018-05-02T20:44:02.921Z,47.42
2018-05-02T20:46:31.399Z,48.29
2018-05-02T20:48:59.693Z,48.19
2018-05-02T20:51:28.503Z,47.83
2018-05-02T20:54:05.574Z,47.82
2018-05-02T20:56:41.674Z,48.45
2018-05-02T20:59:16.980Z,48.63
2018-05-02T21:01:55.108Z,49.13
2018-05-02T21:04:39.147Z,48.49
2018-05-02T21:07:25.810Z,49.07
2018-05-02T21:09:57.753Z,49.51
2018-05-02T21:12:26.462Z,49.94
2018-05-02T21:14:54.816Z,49.81
2018-05-02T21:17:23.278Z,50.41
2018-05-02T21:19:52.010Z,50.93
2018-05-02T21:22:21.587Z,51.38
2018-05-02T21:24:49.971Z,50.23
2018-05-02T21:27:19.122Z,51.08
2018-05-02T21:29:47.604Z,51.30
2018-05-02T21:32:15.956Z,51.44
2018-05-02T21:34:44.337Z,51.70
2018-05-02T21:37:13.242Z,52.42
2018-05-02T21:39:41.582Z,52.92
2018-05-02T21:42:09.921Z,53.26
2018-05-02T21:44:38.345Z,53.08
2018-05-02T21:47:06.918Z,53.87
2018-05-02T21:49:35.415Z,53.99
2018-05-02T21:52:03.789Z,53.81
2018-05-02T21:54:32.266Z,54.52
2018-05-02T21:57:00.648Z,53.98
2018-05-02T21:59:29.146Z,54.16
2018-05-02T22:01:57.537Z,54.01
2018-05-02T22:04:26.052Z,54.29
2018-05-02T22:06:55.360Z,54.74
2018-05-02T22:09:23.700Z,54.79
2018-05-02T22:11:52.181Z,54.72
2018-05-02T22:14:20.652Z,55.42
2018-05-02T22:16:48.986Z,55.19
2018-05-02T22:19:17.319Z,56.17
2018-05-02T22:24:20.238Z,55.09
2018-05-02T22:26:48.518Z,55.53
2018-05-02T22:29:16.876Z,55.67
2018-05-02T22:31:45.245Z,55.80
2018-05-02T22:34:13.546Z,55.53
2018-05-02T22:36:41.868Z,55.03
2018-05-02T22:39:10.180Z,55.19
2018-05-02T22:41:38.490Z,55.22
2018-05-02T22:44:06.851Z,54.60
2018-05-02T22:46:35.231Z,55.12
2018-05-02T22:49:03.535Z,54.64
2018-05-02T22:51:32.315Z,54.78
2018-05-02T22:54:00.625Z,55.26
2018-05-02T22:56:29.731Z,55.45
2018-05-02T22:58:58.141Z,55.08
2018-05-02T23:01:26.473Z,54.31
2018-05-02T23:03:56.510Z,54.86
2018-05-02T23:06:24.781Z,54.94
2018-05-02T23:08:53.185Z,54.81
2018-05-02T23:11:21.501Z,55.04
2018-05-02T23:13:49.938Z,54.77
2018-05-02T23:16:18.279Z,54.65
2018-05-02T23:18:46.600Z,54.73
2018-05-02T23:21:15.710Z,54.76
2018-05-02T23:23:44.148Z,54.66
2018-05-02T23:26:12.486Z,54.64
2018-05-02T23:28:40.795Z,54.46
2018-05-02T23:31:09.845Z,54.45
2018-05-02T23:33:38.204Z,54.82
2018-05-02T23:36:06.582Z,54.38
2018-05-02T23:38:35.260Z,53.82
2018-05-02T23:41:03.869Z,53.56
2018-05-02T23:43:32.194Z,53.61
2018-05-02T23:46:01.276Z,53.25
2018-05-02T23:48:29.673Z,53.37
2018-05-02T23:50:58.729Z,53.73
2018-05-02T23:53:27.027Z,53.84
2018-05-02T23:55:55.436Z,54.08
2018-05-02T23:58:24.683Z,54.20
